createdAt,value
2023-04-22T00:01:56.694Z,11.56
2023-04-22T00:04:25.172Z,11.16
2023-04-22T00:06:53.045Z,11.26
2023-04-22T00:09:20.802Z,11.06
2023-04-22T00:11:48.587Z,10.71
2023-04-22T00:14:16.355Z,10.84
2023-04-22T00:16:44.165Z,10.80
2023-04-22T00:19:13.693Z,11.04
2023-04-22T00:21:41.421Z,10.64
2023-04-22T00:24:09.285Z,10.38
2023-04-22T00:26:37.014Z,10.58
2023-04-22T00:29:04.804Z,10.72
2023-04-22T00:31:32.611Z,10.43
2023-04-22T00:34:00.381Z,10.79
2023-04-22T00:36:29.493Z,10.98
2023-04-22T00:38:57.500Z,10.79
2023-04-22T00:41:26.174Z,11.16
2023-04-22T00:43:54.569Z,11.00
2023-04-22T00:46:23.106Z,10.88
2023-04-22T00:48:51.813Z,10.94
2023-04-22T00:51:19.622Z,10.35
2023-04-22T00:53:48.887Z,10.19
2023-04-22T00:56:16.822Z,10.40
2023-04-22T00:58:45.301Z,10.39
2023-04-22T01:01:13.519Z,10.63
2023-04-22T01:03:41.922Z,10.67
2023-04-22T01:06:09.939Z,10.52
2023-04-22T01:08:37.784Z,11.01
2023-04-22T01:11:06.986Z,10.69
2023-04-22T01:13:35.991Z,10.43
2023-04-22T01:16:04.009Z,10.31
2023-04-22T01:18:32.415Z,10.67
2023-04-22T01:21:00.152Z,10.60
2023-04-22T01:23:29.618Z,10.50
2023-04-22T01:25:58.287Z,10.52
2023-04-22T01:28:26.889Z,10.34
2023-04-22T01:30:54.854Z,10.56
2023-04-22T01:33:23.124Z,10.41
2023-04-22T01:35:50.971Z,10.76
2023-04-22T01:38:18.855Z,10.47
2023-04-22T01:40:47.951Z,10.24
2023-04-22T01:43:15.653Z,10.64
2023-04-22T01:45:43.591Z,10.77
2023-04-22T01:48:12.185Z,10.61
2023-04-22T01:50:39.992Z,10.27
2023-04-22T01:53:08.784Z,10.29
2023-04-22T01:55:37.370Z,10.17
2023-04-22T01:58:06.638Z,10.18
2023-04-22T02:00:34.418Z,10.14
2023-04-22T02:03:02.268Z,10.67
2023-04-22T02:05:30.199Z,10.12
2023-04-22T02:07:57.914Z,10.08
2023-04-22T02:10:25.670Z,10.17
2023-04-22T02:12:53.405Z,10.18
2023-04-22T02:15:22.890Z,10.13
2023-04-22T02:17:50.637Z,10.78
2023-04-22T02:20:18.531Z,10.31
2023-04-22T02:22:46.414Z,10.21
2023-04-22T02:25:14.312Z,10.17
2023-04-22T02:27:42.100Z,10.50
2023-04-22T02:30:10.731Z,10.09
2023-04-22T02:32:40.360Z,10.57
2023-04-22T02:35:08.774Z,9.94
2023-04-22T02:37:36.518Z,10.08
2023-04-22T02:40:04.809Z,9.59
2023-04-22T02:42:32.560Z,9.89
2023-04-22T02:45:00.357Z,9.87
2023-04-22T02:47:28.146Z,10.54
2023-04-22T02:49:57.306Z,10.62
2023-04-22T02:52:25.064Z,10.02
2023-04-22T02:54:52.768Z,10.40
2023-04-22T02:57:21.025Z,9.88
2023-04-22T02:59:48.757Z,9.97
2023-04-22T03:02:16.592Z,10.05
2023-04-22T03:04:44.357Z,9.89
2023-04-22T03:07:13.476Z,10.05
2023-04-22T03:09:41.601Z,9.99
2023-04-22T03:12:10.757Z,9.92
2023-04-22T03:14:38.537Z,9.61
2023-04-22T03:17:06.316Z,9.84
2023-04-22T03:19:34.023Z,9.66
2023-04-22T03:22:01.724Z,10.13
2023-04-22T03:24:30.851Z,9.53
2023-04-22T03:26:58.581Z,9.90
2023-04-22T03:29:26.303Z,9.92
2023-04-22T03:31:54.008Z,10.24
2023-04-22T03:34:22.053Z,9.80
2023-04-22T03:36:49.780Z,10.03
2023-04-22T03:39:17.507Z,9.68
2023-04-22T03:41:46.582Z,9.60
2023-04-22T03:44:14.333Z,10.14
2023-04-22T03:46:42.077Z,9.74
2023-04-22T03:49:10.310Z,10.06
2023-04-22T03:51:38.086Z,10.12
2023-04-22T03:54:06.033Z,10.31
2023-04-22T03:56:33.755Z,10.58
2023-04-22T03:59:02.827Z,10.61
2023-04-22T04:01:30.564Z,10.57
2023-04-22T04:03:58.512Z,10.32
2023-04-22T04:06:26.664Z,10.72
2023-04-22T04:08:54.446Z,10.42
2023-04-22T04:11:22.143Z,10.34
2023-04-22T04:13:49.890Z,10.42
2023-04-22T04:16:19.044Z,10.24
2023-04-22T04:18:46.907Z,9.79
2023-04-22T04:21:14.624Z,9.82
2023-04-22T04:23:42.551Z,9.83
2023-04-22T04:26:10.990Z,9.66
2023-04-22T04:28:38.754Z,10.00
2023-04-22T04:31:06.566Z,10.16
2023-04-22T04:33:37.062Z,9.96
2023-04-22T04:36:05.325Z,9.96
2023-04-22T04:38:34.254Z,9.86
2023-04-22T04:41:02.146Z,10.12
2023-04-22T04:43:30.381Z,10.50
2023-04-22T04:45:58.118Z,10.55
2023-04-22T04:48:27.058Z,10.36
2023-04-22T04:50:56.694Z,10.49
2023-04-22T04:53:24.457Z,10.76
2023-04-22T04:55:52.181Z,10.30
2023-04-22T04:58:19.962Z,10.32
2023-04-22T05:00:48.071Z,10.09
2023-04-22T05:03:15.937Z,10.24
2023-04-22T05:05:43.984Z,10.16
2023-04-22T05:08:13.097Z,10.65
2023-04-22T05:10:42.413Z,10.13
2023-04-22T05:13:10.134Z,10.52
2023-04-22T05:15:37.970Z,10.49
2023-04-22T05:18:06.332Z,10.92
2023-04-22T05:20:36.186Z,10.86
2023-04-22T05:23:04.119Z,10.78
2023-04-22T05:25:33.298Z,11.09
2023-04-22T05:28:01.088Z,11.01
2023-04-22T05:30:28.845Z,11.22
2023-04-22T05:32:56.615Z,11.22
2023-04-22T05:35:24.365Z,11.34
2023-04-22T05:37:52.119Z,11.79
2023-04-22T05:40:19.901Z,11.46
2023-04-22T05:42:48.976Z,11.79
2023-04-22T05:45:17.741Z,12.21
2023-04-22T05:47:45.766Z,12.24
2023-04-22T05:50:13.590Z,12.30
2023-04-22T05:52:41.419Z,12.43
2023-04-22T05:55:09.550Z,12.05
2023-04-22T05:57:37.273Z,12.38
2023-04-22T06:00:07.602Z,12.37
2023-04-22T06:02:35.494Z,12.68
2023-04-22T06:05:03.685Z,12.60
2023-04-22T06:07:31.591Z,12.51
2023-04-22T06:10:04.515Z,12.69
2023-04-22T06:12:34.117Z,12.78
2023-04-22T06:15:01.896Z,13.19
2023-04-22T06:17:31.012Z,13.29
2023-04-22T06:19:58.733Z,13.38
2023-04-22T06:22:26.483Z,13.70
2023-04-22T06:24:54.222Z,13.92
2023-04-22T06:27:21.963Z,13.78
2023-04-22T06:29:49.680Z,13.64
2023-04-22T06:32:17.436Z,13.37
2023-04-22T06:34:46.538Z,13.63
2023-04-22T06:37:14.297Z,13.31
2023-04-22T06:39:42.324Z,13.69
2023-04-22T06:42:10.248Z,13.95
2023-04-22T06:44:38.032Z,14.15
2023-04-22T06:47:05.995Z,14.75
2023-04-22T06:49:35.589Z,14.51
2023-04-22T06:52:04.828Z,14.12
2023-04-22T06:54:32.940Z,14.28
2023-04-22T06:57:00.686Z,13.93
2023-04-22T06:59:28.451Z,14.31
2023-04-22T07:01:56.261Z,14.63
2023-04-22T07:04:24.078Z,14.80
2023-04-22T07:06:52.139Z,14.80
2023-04-22T07:09:21.333Z,15.27
2023-04-22T07:11:49.079Z,14.97
2023-04-22T07:14:16.802Z,15.38
2023-04-22T07:16:44.563Z,15.26
2023-04-22T07:19:12.476Z,15.38
2023-04-22T07:21:40.169Z,15.56
2023-04-22T07:24:11.841Z,15.97
2023-04-22T07:26:41.522Z,16.13
2023-04-22T07:29:09.633Z,16.65
2023-04-22T07:31:37.700Z,15.91
2023-04-22T07:34:05.514Z,16.15
2023-04-22T07:36:33.780Z,16.57
2023-04-22T07:39:01.579Z,16.52
2023-04-22T07:41:29.316Z,16.15
2023-04-22T07:43:58.420Z,16.78
2023-04-22T07:46:26.283Z,16.94
2023-04-22T07:48:54.447Z,17.19
2023-04-22T07:51:22.176Z,16.77
2023-04-22T07:53:49.880Z,17.10
2023-04-22T07:56:17.653Z,17.19
2023-04-22T07:58:45.474Z,17.47
2023-04-22T08:01:14.640Z,17.61
2023-04-22T08:03:42.581Z,17.94
2023-04-22T08:06:10.543Z,18.23
2023-04-22T08:08:38.268Z,17.68
2023-04-22T08:11:06.141Z,17.78
2023-04-22T08:13:33.892Z,18.52
2023-04-22T08:16:03.085Z,18.99
2023-04-22T08:18:32.426Z,18.68
2023-04-22T08:21:00.279Z,19.14
2023-04-22T08:23:28.144Z,18.93
2023-04-22T08:25:55.926Z,19.30
2023-04-22T08:28:23.788Z,19.72
2023-04-22T08:30:51.888Z,19.63
2023-04-22T08:33:19.644Z,19.37
2023-04-22T08:35:48.998Z,19.06
2023-04-22T08:38:16.735Z,19.97
2023-04-22T08:40:44.530Z,20.03
2023-04-22T08:43:13.322Z,19.77
2023-04-22T08:45:41.705Z,20.01
2023-04-22T08:48:10.413Z,20.25
2023-04-22T08:50:39.564Z,19.81
2023-04-22T08:53:08.663Z,20.18
2023-04-22T08:55:37.360Z,19.80
2023-04-22T08:58:06.244Z,20.80
2023-04-22T09:00:35.684Z,20.30
2023-04-22T09:03:07.072Z,20.00
2023-04-22T09:05:37.575Z,20.18
2023-04-22T09:08:05.838Z,20.46
2023-04-22T09:10:38.240Z,20.45
2023-04-22T09:13:07.598Z,21.59
2023-04-22T09:15:35.300Z,20.58
2023-04-22T09:18:03.766Z,21.15
2023-04-22T09:20:31.677Z,21.48
2023-04-22T09:23:03.870Z,21.33
2023-04-22T09:25:34.187Z,22.16
2023-04-22T09:28:03.341Z,21.81
2023-04-22T09:30:32.710Z,20.53
2023-04-22T09:33:01.865Z,21.04
2023-04-22T09:35:31.134Z,20.95
2023-04-22T09:38:00.600Z,21.44
2023-04-22T09:40:29.281Z,22.09
2023-04-22T09:42:58.723Z,22.59
2023-04-22T09:45:30.039Z,22.54
2023-04-22T09:48:00.741Z,23.29
2023-04-22T09:50:29.686Z,22.91
2023-04-22T09:52:59.841Z,23.49
2023-04-22T09:55:28.869Z,23.03
2023-04-22T09:57:57.982Z,23.38
2023-04-22T10:00:29.766Z,23.26
2023-04-22T10:02:57.592Z,23.95
2023-04-22T10:05:25.694Z,23.79
2023-04-22T10:07:53.907Z,24.10
2023-04-22T10:10:21.870Z,23.91
2023-04-22T10:12:49.931Z,24.31
2023-04-22T10:15:17.748Z,24.10
2023-04-22T10:17:47.766Z,24.35
2023-04-22T10:20:18.712Z,25.13
2023-04-22T10:22:47.586Z,25.36
2023-04-22T10:25:21.944Z,24.13
2023-04-22T10:27:55.521Z,24.61
2023-04-22T10:30:30.651Z,24.57
2023-04-22T10:33:39.504Z,25.18
2023-04-22T10:36:12.317Z,25.03
2023-04-22T10:38:42.483Z,23.84
2023-04-22T10:41:16.247Z,24.94
2023-04-22T10:43:45.842Z,25.23
2023-04-22T10:46:50.865Z,24.78
2023-04-22T10:49:21.936Z,25.48
2023-04-22T10:51:51.456Z,25.35
2023-04-22T10:54:56.294Z,24.72
2023-04-22T10:57:24.188Z,24.32
2023-04-22T10:59:54.449Z,25.17
2023-04-22T11:02:23.668Z,26.74
2023-04-22T11:04:54.410Z,25.59
2023-04-22T11:07:34.290Z,25.96
2023-04-22T11:10:05.281Z,25.68
2023-04-22T11:12:45.943Z,25.55
2023-04-22T11:15:16.204Z,25.36
2023-04-22T11:17:45.445Z,25.20
2023-04-22T11:20:17.449Z,26.19
2023-04-22T11:22:47.378Z,25.91
2023-04-22T11:25:16.085Z,25.47
2023-04-22T11:27:44.493Z,25.15
2023-04-22T11:30:14.933Z,25.09
2023-04-22T11:32:45.161Z,25.11
2023-04-22T11:35:16.423Z,25.76
2023-04-22T11:37:45.782Z,26.41
2023-04-22T11:40:28.903Z,27.15
2023-04-22T11:42:59.101Z,26.78
2023-04-22T11:45:28.321Z,26.23
2023-04-22T11:47:56.624Z,26.64
2023-04-22T11:50:27.068Z,26.78
2023-04-22T11:52:56.063Z,25.59
2023-04-22T11:55:27.284Z,25.40
2023-04-22T11:57:57.283Z,25.75
2023-04-22T12:00:29.380Z,25.66
2023-04-22T12:03:01.706Z,27.13
2023-04-22T12:05:48.921Z,27.94
2023-04-22T12:08:18.625Z,27.25
2023-04-22T12:10:48.489Z,26.38
2023-04-22T12:13:19.882Z,27.42
2023-04-22T12:15:47.776Z,27.95
2023-04-22T12:18:15.874Z,27.64
2023-04-22T12:20:43.902Z,26.83
2023-04-22T12:23:17.053Z,26.39
2023-04-22T12:25:45.140Z,26.19
2023-04-22T12:28:14.247Z,27.04
2023-04-22T12:30:42.350Z,25.49
2023-04-22T12:33:10.670Z,25.87
2023-04-22T12:35:38.391Z,26.32
2023-04-22T12:38:06.134Z,26.59
2023-04-22T12:40:35.235Z,25.99
2023-04-22T12:43:05.970Z,27.23
2023-04-22T12:45:33.911Z,26.91
2023-04-22T12:48:01.840Z,27.31
2023-04-22T12:50:29.643Z,27.19
2023-04-22T12:52:57.320Z,27.46
2023-04-22T12:55:25.283Z,27.38
2023-04-22T12:57:54.585Z,27.46
2023-04-22T13:00:22.839Z,28.48
2023-04-22T13:02:51.120Z,28.50
2023-04-22T13:05:19.985Z,28.43
2023-04-22T13:07:59.577Z,27.66
2023-04-22T13:10:31.530Z,27.55
2023-04-22T13:13:15.967Z,28.24
2023-04-22T13:15:45.244Z,27.01
2023-04-22T13:18:13.059Z,28.14
2023-04-22T13:20:41.779Z,29.04
2023-04-22T13:23:09.710Z,27.81
2023-04-22T13:25:37.748Z,27.83
2023-04-22T13:28:06.978Z,27.16
2023-04-22T13:30:34.783Z,27.53
2023-04-22T13:33:02.619Z,27.39
2023-04-22T13:35:30.432Z,27.53
2023-04-22T13:37:58.148Z,27.73
2023-04-22T13:40:26.662Z,27.89
2023-04-22T13:42:54.448Z,28.38
2023-04-22T13:45:23.710Z,27.54
2023-04-22T13:47:52.201Z,27.39
2023-04-22T13:50:20.051Z,28.22
2023-04-22T13:52:49.359Z,28.37
2023-04-22T13:55:17.119Z,28.60
2023-04-22T13:57:45.487Z,27.99
2023-04-22T14:00:14.003Z,27.99
2023-04-22T14:02:43.252Z,28.24
2023-04-22T14:05:11.429Z,27.50
2023-04-22T14:07:39.114Z,27.29
2023-04-22T14:10:08.615Z,28.23
2023-04-22T14:12:36.388Z,27.98
2023-04-22T14:15:04.284Z,27.65
2023-04-22T14:17:32.075Z,28.77
2023-04-22T14:20:01.192Z,27.91
2023-04-22T14:22:28.970Z,27.61
2023-04-22T14:24:56.878Z,27.99
2023-04-22T14:27:24.670Z,28.37
2023-04-22T14:29:53.261Z,28.42
2023-04-22T14:32:21.803Z,28.15
2023-04-22T14:34:49.614Z,28.16
2023-04-22T14:37:18.783Z,29.48
2023-04-22T14:39:46.559Z,29.48
2023-04-22T14:42:15.564Z,29.76
2023-04-22T14:44:43.777Z,29.12
2023-04-22T14:47:11.507Z,28.08
2023-04-22T14:49:39.423Z,28.34
2023-04-22T14:52:07.689Z,28.45
2023-04-22T14:54:36.783Z,28.79
2023-04-22T14:57:04.611Z,28.55
2023-04-22T14:59:32.302Z,28.54
2023-04-22T15:02:00.807Z,27.65
2023-04-22T15:04:28.730Z,28.50
2023-04-22T15:06:57.659Z,27.39
2023-04-22T15:09:25.530Z,27.39
2023-04-22T15:11:56.427Z,27.40
2023-04-22T15:14:24.171Z,27.38
2023-04-22T15:16:52.052Z,27.94
2023-04-22T15:19:19.760Z,27.96
2023-04-22T15:21:47.919Z,28.24
2023-04-22T15:24:15.637Z,28.02
2023-04-22T15:26:43.395Z,27.81
2023-04-22T15:29:12.602Z,28.18
2023-04-22T15:31:40.592Z,28.00
2023-04-22T15:34:08.390Z,28.19
2023-04-22T15:36:36.145Z,28.38
2023-04-22T15:39:05.433Z,27.86
2023-04-22T15:41:34.026Z,28.34
2023-04-22T15:44:01.726Z,27.63
2023-04-22T15:46:32.942Z,28.00
2023-04-22T15:49:01.914Z,27.25
2023-04-22T15:51:30.070Z,27.02
2023-04-22T15:53:58.545Z,26.15
2023-04-22T15:56:26.865Z,26.10
2023-04-22T15:58:54.581Z,26.07
2023-04-22T16:01:22.485Z,26.00
2023-04-22T16:03:51.789Z,25.96
2023-04-22T16:06:19.989Z,26.28
2023-04-22T16:08:47.941Z,25.93
2023-04-22T16:11:16.488Z,26.24
2023-04-22T16:13:44.361Z,25.58
2023-04-22T16:16:12.142Z,25.65
2023-04-22T16:18:42.810Z,24.93
2023-04-22T16:21:13.276Z,24.93
2023-04-22T16:23:41.075Z,24.39
2023-04-22T16:26:08.816Z,24.49
2023-04-22T16:28:36.543Z,24.52
2023-04-22T16:31:04.705Z,24.22
2023-04-22T16:33:34.326Z,24.18
2023-04-22T16:36:02.080Z,24.24
2023-04-22T16:38:31.193Z,24.76
2023-04-22T16:40:58.914Z,24.68
2023-04-22T16:43:26.689Z,24.35
2023-04-22T16:45:54.483Z,24.06
2023-04-22T16:48:22.258Z,24.68
2023-04-22T16:50:51.365Z,24.85
2023-04-22T16:53:19.141Z,25.10
2023-04-22T16:55:48.219Z,26.07
2023-04-22T16:58:16.141Z,25.48
2023-04-22T17:00:45.240Z,25.92
2023-04-22T17:03:14.430Z,25.80
2023-04-22T17:05:42.287Z,26.04
2023-04-22T17:08:10.151Z,26.07
2023-04-22T17:10:41.478Z,25.73
2023-04-22T17:13:10.593Z,24.65
2023-04-22T17:15:38.365Z,24.62
2023-04-22T17:18:07.820Z,24.22
2023-04-22T17:20:35.866Z,24.39
2023-04-22T17:23:04.525Z,23.59
2023-04-22T17:25:32.429Z,24.26
2023-04-22T17:28:00.144Z,24.22
2023-04-22T17:30:29.308Z,23.12
2023-04-22T17:32:57.484Z,23.19
2023-04-22T17:35:25.416Z,22.58
2023-04-22T17:37:53.694Z,22.76
2023-04-22T17:40:21.915Z,23.04
2023-04-22T17:42:49.669Z,22.51
2023-04-22T17:45:17.434Z,22.48
2023-04-22T17:47:48.410Z,22.39
2023-04-22T17:50:16.237Z,22.55
2023-04-22T17:52:44.375Z,22.30
2023-04-22T17:55:12.094Z,22.59
2023-04-22T17:57:39.806Z,22.04
2023-04-22T18:00:10.176Z,21.89
2023-04-22T18:02:38.099Z,21.90
2023-04-22T18:05:08.092Z,21.87
2023-04-22T18:07:36.228Z,21.69
2023-04-22T18:10:03.993Z,21.41
2023-04-22T18:12:31.892Z,21.00
2023-04-22T18:14:59.802Z,21.17
2023-04-22T18:17:27.545Z,21.48
2023-04-22T18:20:02.883Z,21.57
2023-04-22T18:22:39.251Z,21.45
2023-04-22T18:25:07.557Z,21.08
2023-04-22T18:27:35.258Z,21.10
2023-04-22T18:30:03.064Z,20.93
2023-04-22T18:32:31.008Z,21.23
2023-04-22T18:34:58.786Z,21.06
2023-04-22T18:37:30.639Z,21.28
2023-04-22T18:39:59.726Z,20.89
2023-04-22T18:42:27.438Z,20.89
2023-04-22T18:44:55.301Z,21.43
2023-04-22T18:47:23.083Z,21.06
2023-04-22T18:49:50.923Z,20.79
2023-04-22T18:52:18.786Z,20.88
2023-04-22T18:54:46.633Z,20.59
2023-04-22T18:57:15.777Z,20.59
2023-04-22T18:59:43.512Z,20.54
2023-04-22T19:02:13.461Z,20.55
2023-04-22T19:04:41.508Z,20.37
2023-04-22T19:07:09.787Z,20.43
2023-04-22T19:09:37.564Z,19.94
2023-04-22T19:12:06.451Z,20.49
2023-04-22T19:14:35.562Z,20.16
2023-04-22T19:17:03.281Z,19.86
2023-04-22T19:19:30.981Z,20.23
2023-04-22T19:21:58.725Z,19.87
2023-04-22T19:24:32.014Z,19.69
2023-04-22T19:27:01.781Z,19.77
2023-04-22T19:29:29.733Z,19.76
2023-04-22T19:31:58.884Z,19.57
2023-04-22T19:34:27.355Z,19.63
2023-04-22T19:36:55.534Z,19.28
2023-04-22T19:39:23.233Z,19.40
2023-04-22T19:41:51.143Z,19.60
2023-04-22T19:44:19.056Z,19.32
2023-04-22T19:46:46.816Z,19.30
2023-04-22T19:49:17.011Z,19.23
2023-04-22T19:51:46.209Z,19.00
2023-04-22T19:54:14.371Z,19.16
2023-04-22T19:56:42.370Z,18.93
2023-04-22T19:59:10.266Z,19.03
2023-04-22T20:01:38.590Z,18.72
2023-04-22T20:04:06.917Z,19.56
2023-04-22T20:06:36.612Z,18.92
2023-04-22T20:09:05.330Z,18.91
2023-04-22T20:11:33.277Z,19.23
2023-04-22T20:14:02.004Z,18.85
2023-04-22T20:16:30.453Z,18.64
2023-04-22T20:18:58.387Z,18.99
2023-04-22T20:21:26.652Z,18.79
2023-04-22T20:23:57.600Z,18.91
2023-04-22T20:26:26.252Z,18.87
2023-04-22T20:28:54.242Z,18.76
2023-04-22T20:31:23.370Z,18.80
2023-04-22T20:33:51.768Z,18.89
2023-04-22T20:36:22.269Z,18.92
2023-04-22T20:38:51.003Z,18.60
2023-04-22T20:41:20.729Z,18.62
2023-04-22T20:43:48.497Z,18.67
2023-04-22T20:46:16.779Z,18.64
2023-04-22T20:48:44.655Z,18.77
2023-04-22T20:51:12.655Z,18.38
2023-04-22T20:53:41.243Z,18.50
2023-04-22T20:56:08.994Z,18.39
2023-04-22T20:58:38.098Z,18.34
2023-04-22T21:01:06.005Z,18.52
2023-04-22T21:03:34.830Z,18.39
2023-04-22T21:06:03.590Z,18.54
2023-04-22T21:08:34.802Z,18.55
2023-04-22T21:11:03.024Z,18.44
2023-04-22T21:13:31.181Z,18.25
2023-04-22T21:16:04.058Z,18.80
2023-04-22T21:18:33.896Z,18.76
2023-04-22T21:21:04.488Z,18.69
2023-04-22T21:23:32.857Z,18.33
2023-04-22T21:26:02.508Z,18.57
2023-04-22T21:28:30.872Z,18.66
2023-04-22T21:31:00.947Z,18.64
2023-04-22T21:33:28.753Z,18.80
2023-04-22T21:35:56.584Z,18.72
2023-04-22T21:38:24.462Z,18.53
2023-04-22T21:40:52.162Z,18.60
2023-04-22T21:43:19.902Z,18.67
2023-04-22T21:45:48.018Z,18.77
2023-04-22T21:48:17.127Z,18.84
2023-04-22T21:50:44.831Z,18.79
2023-04-22T21:53:12.643Z,18.48
2023-04-22T21:55:40.845Z,18.52
2023-04-22T21:58:08.578Z,19.00
2023-04-22T22:00:37.802Z,18.59
2023-04-22T22:03:06.151Z,18.73
2023-04-22T22:05:36.018Z,18.61
2023-04-22T22:08:04.057Z,18.69
2023-04-22T22:10:31.890Z,18.48
2023-04-22T22:12:59.692Z,18.51
2023-04-22T22:15:27.437Z,18.33
2023-04-22T22:17:55.194Z,18.62
2023-04-22T22:20:23.875Z,18.23
2023-04-22T22:22:53.406Z,18.49
2023-04-22T22:25:21.157Z,18.25
2023-04-22T22:27:49.368Z,17.97
2023-04-22T22:30:18.566Z,18.29
2023-04-22T22:32:46.377Z,18.25
2023-04-22T22:35:14.603Z,18.34
2023-04-22T22:37:42.402Z,18.50
2023-04-22T22:40:13.035Z,18.43
2023-04-22T22:42:40.813Z,18.45
2023-04-22T22:45:10.567Z,18.18
2023-04-22T22:47:39.834Z,18.32
2023-04-22T22:50:09.069Z,18.19
2023-04-22T22:52:36.825Z,18.17
2023-04-22T22:55:04.925Z,18.35
2023-04-22T22:57:34.019Z,18.34
2023-04-22T23:00:01.748Z,18.13
2023-04-22T23:02:29.699Z,18.29
2023-04-22T23:04:58.121Z,18.17
2023-04-22T23:07:25.914Z,18.07
2023-04-22T23:09:53.617Z,18.11
2023-04-22T23:12:21.341Z,18.16
2023-04-22T23:14:50.509Z,18.01
2023-04-22T23:17:18.328Z,17.98
2023-04-22T23:19:46.583Z,17.92
2023-04-22T23:22:15.216Z,18.30
2023-04-22T23:24:43.635Z,18.20
2023-04-22T23:27:12.093Z,18.11
2023-04-22T23:29:40.461Z,18.10
2023-04-22T23:32:12.149Z,18.34
2023-04-22T23:34:45.653Z,18.29
2023-04-22T23:37:16.192Z,18.13
2023-04-22T23:39:44.137Z,17.87
2023-04-22T23:42:11.859Z,18.07
2023-04-22T23:44:39.805Z,18.62
2023-04-22T23:47:09.180Z,18.20
2023-04-22T23:49:37.014Z,18.83
2023-04-22T23:52:04.819Z,17.80
2023-04-22T23:54:33.068Z,17.69
2023-04-22T23:57:01.414Z,17.56
2023-04-22T23:59:29.944Z,17.87
